Canefield Airport

Fair
34oC (93oF)

Fair


Winds: South westerly @ 02kts / 04km/h

Humidity: 73%

Barometric Pressure: 1012 mb

Accumulated Rainfall for September: 91.7 mm

Updated: 10:00 local time (14:00 UTC)

Douglas-Charles Airport

Fair with slight haze
31oC (88oF)

Fair with slight haze


Winds: North easterly @ 03kts / 06km/h

Humidity: 72%

Barometric Pressure: 1014 mb

Accumulated Rainfall for September: 136.8 mm

Updated: 10:00 local time (14:00 UTC)

Satellite Imagery

Satellite Imagery
Click image for larger view. (Source: National Hurricane Center).

Aviation Routine Report (METAR)

Douglas-Charles: METAR TDPD 201400Z 04003KT 9999 FEW022 31/25 Q1014=
Canefield: METAR TDCF 201400Z 22002KT 9999 FEW016 FEW///CB 34/28 Q1012=